Time;durP1;ratioP1;P1;durP2;ratioP2;P2;SDS_P1;SDS_P2;PMS_P1;PMS_P2;Temp;Humidity;BMP_temperature;BMP_pressure;BME280_temperature;BME280_humidity;BME280_pressure;Samples;Min_cycle;Max_cycle;Signal;HPM_P1;HPM_P2
2021/04/15 00:01:32;;;;;;;25.10;11.38;;;-3276.20;93.70;;;;;;4988761;28;20033;-67
2021/04/15 00:03:57;;;;;;;26.42;12.02;;;-3276.10;93.70;;;;;;4982546;28;20031;-66
2021/04/15 00:06:28;;;;;;;27.92;12.95;;;-3276.10;93.70;;;;;;4987787;28;20037;-69
2021/04/15 00:08:55;;;;;;;32.22;13.93;;;-3276.20;93.90;;;;;;4987162;28;20157;-69
2021/04/15 00:11:24;;;;;;;31.10;12.93;;;-3276.10;94.00;;;;;;4988216;28;20516;-69
2021/04/15 00:13:54;;;;;;;32.88;12.85;;;-3276.10;94.10;;;;;;4976917;28;20025;-69
2021/04/15 00:16:22;;;;;;;30.50;12.73;;;-3276.10;94.10;;;;;;4987488;28;20514;-69
2021/04/15 00:18:48;;;;;;;26.40;12.20;;;-3276.10;94.10;;;;;;4984438;28;20038;-69
2021/04/15 00:21:15;;;;;;;35.80;13.88;;;-3276.00;94.10;;;;;;4987991;28;20618;-68
2021/04/15 00:23:40;;;;;;;41.60;15.15;;;-3276.00;94.10;;;;;;4985603;28;20126;-69
2021/04/15 00:26:08;;;;;;;32.85;13.40;;;-3276.10;94.20;;;;;;4984604;28;20166;-69
2021/04/15 00:28:34;;;;;;;31.17;14.20;;;-3276.10;94.30;;;;;;4983588;28;20057;-69
2021/04/15 00:31:00;;;;;;;36.65;14.98;;;-3276.00;94.30;;;;;;4987763;28;20023;-69
2021/04/15 00:33:26;;;;;;;40.55;14.73;;;-3276.00;94.30;;;;;;4986703;28;20041;-69
2021/04/15 00:35:52;;;;;;;31.83;14.10;;;-3276.00;94.40;;;;;;4982440;28;20030;-69
2021/04/15 00:38:21;;;;;;;43.85;17.05;;;-3275.90;94.30;;;;;;4986935;28;20407;-69
2021/04/15 00:40:48;;;;;;;32.80;13.77;;;-3276.00;94.40;;;;;;4986844;28;20391;-69
2021/04/15 00:43:15;;;;;;;35.15;14.35;;;-3276.00;94.50;;;;;;4984910;28;20034;-68
2021/04/15 00:45:44;;;;;;;43.83;15.93;;;-3276.00;94.60;;;;;;4984560;28;20026;-69
2021/04/15 00:48:23;;;;;;;39.15;16.02;;;-3276.00;94.60;;;;;;4985830;28;20031;-68
2021/04/15 00:50:57;;;;;;;39.38;16.13;;;-3276.00;94.60;;;;;;4984556;28;20435;-69
2021/04/15 00:53:38;;;;;;;49.53;18.08;;;-3275.90;94.50;;;;;;4986545;28;20483;-68
2021/04/15 00:56:05;;;;;;;51.42;17.65;;;-3275.90;94.60;;;;;;4986004;28;20042;-70
2021/04/15 00:58:31;;;;;;;52.42;19.05;;;-3275.90;94.70;;;;;;4987771;28;20022;-70
2021/04/15 01:00:57;;;;;;;51.35;19.20;;;-3275.90;94.70;;;;;;4982239;28;20030;-69
2021/04/15 01:03:23;;;;;;;48.35;19.75;;;-3275.80;94.60;;;;;;4985482;28;20088;-69
2021/04/15 01:05:50;;;;;;;53.95;19.58;;;-3275.80;94.60;;;;;;4982852;28;20022;-69
2021/04/15 01:08:16;;;;;;;46.50;19.38;;;-3275.80;94.60;;;;;;4989062;28;20019;-67
2021/04/15 01:10:56;;;;;;;57.13;20.63;;;-3275.80;94.70;;;;;;4985616;28;20026;-68
2021/04/15 01:13:47;;;;;;;59.42;20.40;;;-3275.80;94.70;;;;;;4988823;28;20096;-69
2021/04/15 01:16:51;;;;;;;57.47;20.50;;;-3275.80;94.70;;;;;;4985067;28;20085;-69
2021/04/15 01:19:54;;;;;;;58.53;20.23;;;-3275.80;94.80;;;;;;4985530;28;20483;-68
2021/04/15 01:22:41;;;;;;;56.95;21.10;;;-3275.80;94.80;;;;;;4988160;28;20112;-69
2021/04/15 01:25:44;;;;;;;53.53;19.15;;;-3275.80;94.80;;;;;;4983306;28;20403;-68
2021/04/15 01:28:21;;;;;;;59.95;20.92;;;-3275.70;94.90;;;;;;4975025;28;20026;-68
2021/04/15 01:31:03;;;;;;;64.45;22.08;;;-3275.80;95.00;;;;;;4982177;28;20025;-69
2021/04/15 01:34:06;;;;;;;54.22;19.70;;;-3276.00;95.30;;;;;;4983360;28;20240;-68
2021/04/15 01:36:58;;;;;;;57.15;19.05;;;-3275.80;95.10;;;;;;4930578;29;20031;-67
2021/04/15 01:39:33;;;;;;;62.67;21.58;;;-3275.80;95.10;;;;;;4979777;28;20111;-68
2021/04/15 01:42:12;;;;;;;55.35;20.13;;;-3275.90;95.20;;;;;;4987942;28;20065;-68
2021/04/15 01:44:50;;;;;;;58.17;21.20;;;-3275.70;95.10;;;;;;4983708;28;20041;-69
2021/04/15 01:47:27;;;;;;;65.35;21.77;;;-3275.70;95.10;;;;;;4987922;28;20030;-65
2021/04/15 01:49:59;;;;;;;54.88;20.92;;;-3275.70;95.00;;;;;;4977174;28;20390;-66
2021/04/15 01:52:26;;;;;;;52.90;21.13;;;-3275.60;95.00;;;;;;4988632;28;20030;-66
2021/04/15 01:55:05;;;;;;;72.15;22.25;;;-3275.60;95.00;;;;;;4986473;28;20269;-68
2021/04/15 01:57:38;;;;;;;66.30;22.77;;;-3275.70;95.10;;;;;;4983602;28;20061;-67
2021/04/15 02:00:06;;;;;;;69.47;22.73;;;-3275.70;95.00;;;;;;4984486;28;20030;-68
2021/04/15 02:02:39;;;;;;;77.57;23.88;;;-3275.60;95.00;;;;;;4984106;28;20054;-67
2021/04/15 02:05:11;;;;;;;69.47;23.02;;;-3275.60;95.00;;;;;;4986091;28;20104;-67
2021/04/15 02:07:42;;;;;;;72.15;23.98;;;-3275.60;95.00;;;;;;4988598;28;20023;-68
2021/04/15 02:10:10;;;;;;;69.88;23.08;;;-3275.60;95.00;;;;;;4986840;28;20034;-67
2021/04/15 02:12:40;;;;;;;76.50;24.05;;;-3275.70;95.30;;;;;;4986134;28;20034;-67
2021/04/15 02:15:15;;;;;;;79.68;25.30;;;-3275.70;95.10;;;;;;4984929;28;20026;-66
2021/04/15 02:17:42;;;;;;;77.78;26.27;;;-3275.70;95.10;;;;;;4986104;28;20935;-68
2021/04/15 02:20:24;;;;;;;74.95;25.73;;;-3275.70;95.10;;;;;;4982477;28;20030;-67
2021/04/15 02:22:58;;;;;;;89.07;26.92;;;-3275.60;95.10;;;;;;4983584;28;20106;-69
2021/04/15 02:25:30;;;;;;;89.20;26.92;;;-3275.70;95.20;;;;;;4976832;28;20455;-68
2021/04/15 02:28:08;;;;;;;90.72;28.05;;;-3275.70;95.20;;;;;;4973369;28;20108;-68
2021/04/15 02:30:40;;;;;;;72.53;26.40;;;-3275.70;95.30;;;;;;4981977;28;20088;-68
2021/04/15 02:33:25;;;;;;;82.45;29.05;;;-3275.60;95.20;;;;;;4985550;28;20034;-68
2021/04/15 02:35:57;;;;;;;101.95;31.45;;;-3275.50;95.20;;;;;;4986022;28;20367;-69
2021/04/15 02:38:30;;;;;;;95.22;29.95;;;-3275.50;95.20;;;;;;4984563;28;20038;-67
2021/04/15 02:41:01;;;;;;;89.07;30.83;;;-3275.50;95.20;;;;;;4983391;28;20045;-67
2021/04/15 02:43:39;;;;;;;94.82;31.80;;;-3275.50;95.10;;;;;;4980738;28;20060;-67
2021/04/15 02:46:11;;;;;;;100.80;32.90;;;-3275.50;95.20;;;;;;4980676;28;20439;-67
2021/04/15 02:48:39;;;;;;;95.53;33.05;;;-3275.40;95.10;;;;;;4981923;28;20489;-67
2021/04/15 02:51:12;;;;;;;97.88;31.58;;;-3275.40;95.10;;;;;;4987805;28;20035;-68
2021/04/15 02:53:44;;;;;;;87.50;31.45;;;-3275.50;95.10;;;;;;4985670;28;20030;-67
2021/04/15 02:56:19;;;;;;;95.68;31.42;;;-3275.40;95.10;;;;;;4987249;28;20091;-67
2021/04/15 02:58:50;;;;;;;100.07;32.92;;;-3275.40;95.10;;;;;;4986020;28;20034;-67
2021/04/15 03:01:22;;;;;;;93.22;33.05;;;-3275.40;95.10;;;;;;4981448;28;20039;-67
2021/04/15 03:03:51;;;;;;;113.85;34.30;;;-3275.40;95.20;;;;;;4984081;28;20042;-68
2021/04/15 03:06:24;;;;;;;113.15;35.85;;;-3275.40;95.20;;;;;;4986790;28;20096;-67
2021/04/15 03:08:58;;;;;;;106.95;34.88;;;-3275.50;95.20;;;;;;4985192;28;20069;-68
2021/04/15 03:11:47;;;;;;;87.78;32.63;;;-3275.50;95.20;;;;;;4984452;28;20542;-67
2021/04/15 03:14:29;;;;;;;95.05;31.52;;;-3275.40;95.30;;;;;;4980830;28;20145;-68
2021/04/15 03:17:03;;;;;;;78.85;29.00;;;-3275.40;95.20;;;;;;4983815;28;20026;-68
2021/04/15 03:19:50;;;;;;;86.68;32.58;;;-3275.40;95.20;;;;;;4976521;28;20154;-68
2021/04/15 03:22:28;;;;;;;89.47;31.85;;;-3275.40;95.30;;;;;;4986304;28;20035;-67
2021/04/15 03:24:57;;;;;;;72.93;28.13;;;-3275.40;95.30;;;;;;4988263;28;20442;-67
2021/04/15 03:27:59;;;;;;;82.40;30.92;;;-3275.30;95.10;;;;;;4987959;28;20125;-68
2021/04/15 03:31:00;;;;;;;88.55;33.08;;;-3275.30;95.10;;;;;;4986295;28;20033;-67
2021/04/15 03:34:06;;;;;;;95.65;31.40;;;-3275.20;95.20;;;;;;4980330;28;20035;-68
2021/04/15 03:36:36;;;;;;;90.18;30.13;;;-3275.20;95.20;;;;;;4948295;28;20122;-67
2021/04/15 03:39:06;;;;;;;104.28;34.30;;;-3275.30;95.20;;;;;;4976260;28;20030;-68
2021/04/15 03:41:42;;;;;;;103.45;33.60;;;-3275.30;95.30;;;;;;4991083;28;20128;-67
2021/04/15 03:44:28;;;;;;;99.40;33.17;;;-3275.30;95.20;;;;;;4982519;28;20182;-68
2021/04/15 03:47:04;;;;;;;95.13;32.00;;;-3275.30;95.30;;;;;;4986841;28;20030;-67
2021/04/15 03:49:32;;;;;;;83.80;32.20;;;-3275.20;95.30;;;;;;4983091;28;20026;-67
2021/04/15 03:52:05;;;;;;;105.40;34.92;;;-3275.20;95.30;;;;;;4986063;28;20038;-67
2021/04/15 03:54:40;;;;;;;106.55;34.63;;;-3275.20;95.40;;;;;;4988513;28;20038;-67
2021/04/15 03:57:11;;;;;;;121.95;37.22;;;-3275.20;95.40;;;;;;4989517;28;20034;-68
2021/04/15 03:59:48;;;;;;;123.15;37.55;;;-3275.20;95.40;;;;;;4982253;28;20502;-67
2021/04/15 04:02:29;;;;;;;107.43;37.95;;;-3275.20;95.40;;;;;;4987358;28;20041;-67
2021/04/15 04:04:59;;;;;;;104.85;36.50;;;-3275.20;95.40;;;;;;4986363;28;20163;-66
2021/04/15 04:07:38;;;;;;;107.80;35.55;;;-3275.10;95.30;;;;;;4990362;28;20034;-67
2021/04/15 04:10:10;;;;;;;86.05;32.10;;;-3275.00;95.30;;;;;;4983176;28;20024;-69
2021/04/15 04:12:51;;;;;;;98.53;33.78;;;-3275.10;95.40;;;;;;4990268;28;20204;-68
2021/04/15 04:15:27;;;;;;;;;;;-3275.00;95.30;;;;;;4979474;28;20398;-68
2021/04/15 04:18:01;;;;;;;106.47;32.15;;;-3275.10;95.40;;;;;;4985960;28;19909;-69
2021/04/15 04:20:33;;;;;;;103.57;34.35;;;-3275.00;95.40;;;;;;4979605;28;20030;-69
2021/04/15 04:23:17;;;;;;;113.82;36.58;;;-3275.00;95.30;;;;;;4967116;28;20562;-69
2021/04/15 04:25:54;;;;;;;134.50;40.85;;;-3275.00;95.30;;;;;;4967796;28;20058;-69
2021/04/15 04:28:38;;;;;;;118.45;40.25;;;-3275.00;95.40;;;;;;4966124;28;20026;-69
2021/04/15 04:31:21;;;;;;;145.00;42.75;;;-3274.90;95.30;;;;;;4966866;28;20045;-68
2021/04/15 04:33:50;;;;;;;132.88;39.85;;;-3274.90;95.30;;;;;;4967531;28;20037;-68
2021/04/15 04:36:18;;;;;;;152.35;43.22;;;-3274.90;95.30;;;;;;4974447;28;20035;-69
2021/04/15 04:38:45;;;;;;;148.57;44.65;;;-3274.90;95.40;;;;;;4981094;28;20034;-69
2021/04/15 04:41:15;;;;;;;162.45;46.50;;;-3274.90;95.40;;;;;;4981632;28;20041;-68
2021/04/15 04:44:06;;;;;;;178.90;48.42;;;-3275.00;95.50;;;;;;4967957;28;20034;-67
2021/04/15 04:46:56;;;;;;;169.73;46.95;;;-3275.00;95.50;;;;;;4985899;28;20418;-67
2021/04/15 04:49:28;;;;;;;159.85;43.55;;;-3275.10;95.50;;;;;;4982516;28;20022;-67
2021/04/15 04:52:01;;;;;;;157.73;46.92;;;-3275.10;95.50;;;;;;4988403;28;20109;-67
2021/04/15 04:54:27;;;;;;;153.95;44.55;;;-3275.20;95.60;;;;;;4985762;28;20057;-69
2021/04/15 04:57:17;;;;;;;148.25;44.17;;;-3275.30;95.60;;;;;;4988700;28;20030;-67
2021/04/15 05:00:06;;;;;;;166.48;45.03;;;-3275.30;95.60;;;;;;4982856;28;20096;-67
2021/04/15 05:02:32;;;;;;;151.57;42.97;;;-3275.40;95.70;;;;;;4985076;28;20169;-69
2021/04/15 05:05:04;;;;;;;138.98;42.78;;;-3275.40;95.60;;;;;;4981747;28;20133;-68
2021/04/15 05:07:33;;;;;;;136.07;42.45;;;-3275.40;95.70;;;;;;4989094;28;20219;-68
2021/04/15 05:09:59;;;;;;;122.38;40.58;;;-3275.50;95.60;;;;;;4984635;28;20034;-68
2021/04/15 05:12:28;;;;;;;113.65;39.58;;;-3275.50;95.60;;;;;;4988101;28;20391;-67
2021/04/15 05:14:55;;;;;;;113.63;38.38;;;-3275.50;95.60;;;;;;4978448;28;20030;-66
2021/04/15 05:17:30;;;;;;;97.97;36.15;;;-3275.50;95.50;;;;;;4977251;28;20038;-68
2021/04/15 05:19:58;;;;;;;112.88;38.35;;;-3275.60;95.50;;;;;;4982000;28;20031;-67
2021/04/15 05:22:39;;;;;;;136.35;41.03;;;-3275.60;95.50;;;;;;4989055;28;20022;-68
2021/04/15 05:25:19;;;;;;;109.70;37.22;;;-3275.70;95.50;;;;;;4984341;28;20038;-68
2021/04/15 05:27:46;;;;;;;99.28;34.45;;;-3275.70;95.40;;;;;;4983082;28;20376;-68
2021/04/15 05:30:33;;;;;;;92.88;33.97;;;-3275.70;95.40;;;;;;4979449;28;20081;-69
2021/04/15 05:33:01;;;;;;;101.43;36.10;;;-3275.80;95.30;;;;;;4986633;28;20118;-67
2021/04/15 05:35:32;;;;;;;109.47;36.95;;;-3275.80;95.30;;;;;;4984092;28;20042;-67
2021/04/15 05:37:58;;;;;;;89.53;34.50;;;-3275.90;95.40;;;;;;4983210;28;20045;-68
2021/04/15 05:40:23;;;;;;;105.38;36.65;;;-3275.90;95.30;;;;;;4981687;28;20150;-68
2021/04/15 05:43:06;;;;;;;115.75;36.78;;;-3276.00;95.20;;;;;;4986006;28;20113;-66
2021/04/15 05:45:33;;;;;;;106.75;36.63;;;-3276.00;95.30;;;;;;4980128;28;20042;-66
2021/04/15 05:48:10;;;;;;;119.32;38.40;;;-3276.20;95.30;;;;;;4987464;28;20390;-68
2021/04/15 05:50:48;;;;;;;108.65;36.92;;;-3276.30;95.40;;;;;;4978197;28;20029;-67
2021/04/15 05:53:32;;;;;;;105.63;36.70;;;-3276.40;95.40;;;;;;4983723;28;20255;-67
2021/04/15 05:56:02;;;;;;;99.13;34.92;;;-3276.50;95.40;;;;;;4987816;28;20364;-68
2021/04/15 05:58:34;;;;;;;92.32;34.47;;;-3276.60;95.30;;;;;;4986473;28;20453;-67
2021/04/15 06:01:07;;;;;;;91.18;33.88;;;0.00;95.40;;;;;;4981205;28;20233;-69
2021/04/15 06:03:46;;;;;;;90.15;32.53;;;0.10;95.40;;;;;;4981184;28;20479;-68
2021/04/15 06:06:16;;;;;;;83.60;31.88;;;0.20;95.20;;;;;;4983867;28;20036;-67
2021/04/15 06:08:45;;;;;;;76.00;30.85;;;0.30;95.10;;;;;;4984877;28;20617;-68
2021/04/15 06:11:43;;;;;;;67.25;28.30;;;0.40;94.90;;;;;;4984047;28;20038;-69
2021/04/15 06:14:49;;;;;;;69.45;28.48;;;0.50;94.70;;;;;;4984006;28;20030;-68
2021/04/15 06:17:27;;;;;;;53.70;25.13;;;0.70;94.60;;;;;;4959652;28;20073;-68
2021/04/15 06:20:01;;;;;;;51.53;23.95;;;0.80;94.30;;;;;;4981613;28;20985;-67
2021/04/15 06:22:30;;;;;;;49.75;24.70;;;0.90;94.10;;;;;;4981161;28;20514;-67
2021/04/15 06:25:19;;;;;;;46.85;25.65;;;1.00;93.90;;;;;;4983555;28;20104;-67
2021/04/15 06:27:48;;;;;;;48.33;23.75;;;1.20;93.60;;;;;;4986691;28;20057;-68
2021/04/15 06:30:16;;;;;;;39.00;20.60;;;1.40;93.50;;;;;;4975682;28;20129;-68
2021/04/15 06:32:53;;;;;;;39.83;20.10;;;1.50;93.00;;;;;;4983389;28;20494;-67
2021/04/15 06:35:44;;;;;;;37.92;20.98;;;1.80;92.70;;;;;;4979941;28;20080;-70
2021/04/15 06:38:18;;;;;;;33.73;16.43;;;1.90;92.40;;;;;;4980800;28;20044;-68
2021/04/15 06:41:02;;;;;;;32.50;17.33;;;2.10;92.00;;;;;;4985707;28;20777;-67
2021/04/15 06:43:46;;;;;;;34.78;19.38;;;2.20;91.40;;;;;;4978317;28;20630;-68
2021/04/15 06:46:51;;;;;;;33.78;17.85;;;2.50;91.30;;;;;;4983561;28;20058;-69
2021/04/15 06:49:38;;;;;;;20.45;13.90;;;2.90;91.00;;;;;;4938208;28;20038;-68
2021/04/15 06:52:28;;;;;;;20.75;13.75;;;2.90;89.30;;;;;;4986642;28;20105;-68
2021/04/15 06:55:15;;;;;;;22.60;12.30;;;3.10;88.90;;;;;;4980706;28;20026;-68
2021/04/15 06:58:08;;;;;;;14.43;9.45;;;3.30;88.30;;;;;;4978293;28;20027;-68
2021/04/15 07:00:33;;;;;;;14.88;9.20;;;3.20;85.80;;;;;;4981433;28;20045;-70
2021/04/15 07:03:07;;;;;;;16.02;10.85;;;3.50;86.50;;;;;;4985017;28;20484;-68
2021/04/15 07:05:44;;;;;;;13.52;9.00;;;4.10;88.80;;;;;;4979331;28;20526;-69
2021/04/15 07:08:29;;;;;;;13.57;8.05;;;4.30;86.40;;;;;;4987345;28;20100;-67
2021/04/15 07:11:16;;;;;;;14.13;7.25;;;4.40;84.40;;;;;;4974572;28;20066;-70
2021/04/15 07:14:13;;;;;;;10.90;6.75;;;4.50;84.30;;;;;;4981077;28;20022;-67
2021/04/15 07:16:57;;;;;;;11.35;7.05;;;4.60;83.10;;;;;;4982321;28;20037;-67
2021/04/15 07:19:55;;;;;;;11.00;6.75;;;4.90;84.70;;;;;;4973562;28;20031;-66
2021/04/15 07:22:49;;;;;;;10.32;6.18;;;5.00;82.90;;;;;;4976777;28;20117;-66
2021/04/15 07:25:56;;;;;;;11.02;6.13;;;5.00;82.20;;;;;;4979926;28;20494;-66
2021/04/15 07:28:43;;;;;;;10.90;5.93;;;5.10;80.80;;;;;;4975219;28;20069;-66
2021/04/15 07:31:33;;;;;;;12.90;5.97;;;4.90;80.80;;;;;;4986967;28;20080;-66
2021/04/15 07:34:20;;;;;;;14.48;6.10;;;5.00;80.30;;;;;;4977218;28;20064;-67
2021/04/15 07:37:14;;;;;;;12.25;5.80;;;5.10;80.90;;;;;;4985682;28;20026;-66
2021/04/15 07:39:49;;;;;;;9.35;6.20;;;5.30;80.10;;;;;;4976241;28;20041;-67
2021/04/15 07:42:46;;;;;;;13.10;6.35;;;5.90;81.80;;;;;;4961156;28;20084;-67
2021/04/15 07:45:36;;;;;;;10.93;5.50;;;6.20;79.50;;;;;;4981868;28;20050;-69
2021/04/15 07:48:37;;;;;;;10.07;5.32;;;6.50;79.00;;;;;;4980491;28;20295;-68
2021/04/15 07:51:53;;;;;;;8.82;5.30;;;6.10;75.40;;;;;;4984399;28;20035;-66
2021/04/15 07:55:20;;;;;;;12.27;5.80;;;6.10;76.30;;;;;;4943595;28;20053;-67
2021/04/15 07:58:22;;;;;;;13.38;5.35;;;6.70;78.10;;;;;;4943904;28;20058;-65
2021/04/15 08:00:50;;;;;;;8.32;4.60;;;7.20;75.60;;;;;;4962723;28;20043;-66
2021/04/15 08:03:45;;;;;;;10.55;4.85;;;6.90;73.90;;;;;;4980156;28;20384;-67
2021/04/15 08:06:19;;;;;;;9.40;4.50;;;7.00;73.90;;;;;;4974827;28;20093;-69
2021/04/15 08:09:16;;;;;;;8.43;4.70;;;7.20;73.90;;;;;;4983143;28;20439;-67
2021/04/15 08:11:55;;;;;;;11.82;4.47;;;7.70;73.50;;;;;;4986702;28;20033;-67
2021/04/15 08:14:58;;;;;;;10.80;3.95;;;8.10;71.60;;;;;;4979091;28;20466;-67
2021/04/15 08:17:56;;;;;;;7.60;3.50;;;8.40;72.40;;;;;;4954658;28;20118;-69
2021/04/15 08:20:56;;;;;;;7.32;3.30;;;8.50;68.10;;;;;;4980407;28;20132;-68
2021/04/15 08:23:30;;;;;;;6.65;3.78;;;8.60;68.10;;;;;;4977238;28;20026;-67
2021/04/15 08:26:33;;;;;;;9.20;4.03;;;8.50;67.10;;;;;;4989360;28;20034;-66
2021/04/15 08:29:43;;;;;;;6.03;3.47;;;8.10;65.70;;;;;;4975131;28;20446;-68
2021/04/15 08:32:15;;;;;;;11.25;4.00;;;8.60;69.70;;;;;;4978941;28;20121;-68
2021/04/15 08:34:43;;;;;;;7.60;3.28;;;8.60;64.80;;;;;;4982875;28;20375;-69
2021/04/15 08:37:35;;;;;;;8.82;3.78;;;9.00;65.00;;;;;;4985599;28;20026;-67
2021/04/15 08:40:06;;;;;;;7.40;3.55;;;9.40;63.20;;;;;;4975774;28;20048;-66
2021/04/15 08:42:55;;;;;;;6.22;3.15;;;9.60;61.40;;;;;;4980767;28;20030;-69
2021/04/15 08:45:43;;;;;;;7.00;2.85;;;9.00;61.10;;;;;;4984156;28;20034;-67
2021/04/15 08:48:31;;;;;;;4.00;2.15;;;9.30;60.10;;;;;;4980861;28;20049;-68
2021/04/15 08:51:07;;;;;;;6.65;2.42;;;9.40;58.20;;;;;;4983850;28;20458;-69
2021/04/15 08:54:02;;;;;;;4.90;2.50;;;9.40;58.80;;;;;;4986599;28;20390;-65
2021/04/15 08:56:36;;;;;;;4.90;2.10;;;9.80;56.60;;;;;;4987126;28;20034;-67
2021/04/15 08:59:13;;;;;;;4.65;1.80;;;10.20;57.10;;;;;;4984643;28;20030;-69
2021/04/15 09:01:51;;;;;;;3.05;1.77;;;10.80;54.40;;;;;;4984276;28;20105;-68
2021/04/15 09:04:22;;;;;;;3.17;1.90;;;10.80;51.90;;;;;;4979638;28;20036;-67
2021/04/15 09:06:58;;;;;;;3.95;1.83;;;11.20;51.10;;;;;;4983328;28;20093;-70
2021/04/15 09:09:39;;;;;;;9.95;2.15;;;11.50;50.40;;;;;;4971937;28;20032;-69
2021/04/15 09:12:10;;;;;;;4.13;1.85;;;11.30;49.00;;;;;;4983894;28;20109;-68
2021/04/15 09:14:52;;;;;;;4.55;2.00;;;11.10;49.40;;;;;;4984504;28;20034;-67
2021/04/15 09:17:34;;;;;;;3.22;1.83;;;10.90;50.20;;;;;;4985379;28;20027;-67
2021/04/15 09:20:18;;;;;;;7.22;2.00;;;11.00;50.10;;;;;;4983438;28;20026;-66
2021/04/15 09:22:59;;;;;;;3.20;1.55;;;11.00;48.10;;;;;;4983979;28;20018;-69
2021/04/15 09:25:53;;;;;;;2.95;1.70;;;10.80;45.70;;;;;;4982460;28;20023;-67
2021/04/15 09:28:37;;;;;;;3.53;1.55;;;11.00;46.70;;;;;;4977222;28;20030;-68
2021/04/15 09:31:17;;;;;;;2.65;1.45;;;10.70;47.00;;;;;;4984415;28;20093;-68
2021/04/15 09:33:58;;;;;;;2.15;1.25;;;11.40;46.80;;;;;;4981920;28;20092;-67
2021/04/15 09:36:48;;;;;;;3.53;1.42;;;11.30;44.10;;;;;;4978883;28;20030;-67
2021/04/15 09:39:32;;;;;;;3.65;1.23;;;11.10;43.60;;;;;;4978992;28;20034;-67
2021/04/15 09:42:27;;;;;;;5.45;1.50;;;11.20;44.80;;;;;;4986468;28;20036;-69
2021/04/15 09:45:01;;;;;;;2.20;1.08;;;11.20;44.30;;;;;;4956459;28;20046;-67
2021/04/15 09:47:39;;;;;;;1.92;1.10;;;10.50;43.30;;;;;;4988623;28;20130;-68
2021/04/15 09:50:23;;;;;;;2.38;1.25;;;10.60;40.20;;;;;;4975470;28;20092;-67
2021/04/15 09:53:05;;;;;;;2.10;1.13;;;10.70;42.60;;;;;;4987447;28;20091;-67
2021/04/15 09:55:34;;;;;;;1.58;0.90;;;11.70;43.20;;;;;;4984284;28;20112;-67
2021/04/15 09:58:34;;;;;;;2.42;1.02;;;11.60;38.10;;;;;;4987132;28;20603;-68
2021/04/15 10:01:14;;;;;;;1.15;0.80;;;11.70;39.40;;;;;;4980056;28;20495;-67
2021/04/15 10:03:58;;;;;;;2.40;0.90;;;10.90;35.20;;;;;;4979591;28;20312;-68
2021/04/15 10:06:32;;;;;;;3.55;1.02;;;10.40;37.60;;;;;;4978308;28;20035;-69
2021/04/15 10:08:57;;;;;;;1.67;0.90;;;10.70;38.90;;;;;;4973424;28;20114;-68
2021/04/15 10:11:26;;;;;;;3.72;0.98;;;10.20;34.60;;;;;;4985990;28;20030;-67
2021/04/15 10:14:15;;;;;;;1.48;0.80;;;10.00;37.70;;;;;;4976448;28;20440;-68
2021/04/15 10:16:47;;;;;;;7.03;0.88;;;9.80;39.60;;;;;;4976153;28;20042;-68
2021/04/15 10:19:37;;;;;;;1.05;0.80;;;10.20;40.20;;;;;;4981431;28;20398;-68
2021/04/15 10:22:27;;;;;;;1.40;0.80;;;10.80;37.60;;;;;;4983368;28;20137;-69
2021/04/15 10:24:57;;;;;;;1.55;0.90;;;11.50;38.90;;;;;;4974373;28;20042;-67
2021/04/15 10:27:52;;;;;;;2.03;0.85;;;10.90;37.30;;;;;;4984554;28;20406;-67
2021/04/15 10:30:48;;;;;;;2.83;1.02;;;10.60;39.80;;;;;;4978987;28;20018;-67
2021/04/15 10:33:51;;;;;;;5.55;0.95;;;10.30;41.70;;;;;;4982179;28;20549;-68
2021/04/15 10:36:30;;;;;;;3.33;1.00;;;10.00;38.60;;;;;;4982300;28;20088;-66
2021/04/15 10:39:08;;;;;;;1.75;1.13;;;10.30;38.70;;;;;;4978183;28;20046;-67
2021/04/15 10:41:58;;;;;;;0.90;0.77;;;10.30;39.50;;;;;;4987716;28;20034;-67
2021/04/15 10:44:42;;;;;;;1.65;0.93;;;10.00;39.00;;;;;;4983256;28;20427;-66
2021/04/15 10:47:28;;;;;;;1.02;0.90;;;10.20;42.40;;;;;;4976391;28;20105;-69
2021/04/15 10:50:18;;;;;;;3.33;0.90;;;10.10;41.40;;;;;;4980208;28;20117;-70
2021/04/15 10:53:04;;;;;;;1.95;0.80;;;10.00;41.20;;;;;;4984638;28;20019;-66
2021/04/15 10:55:33;;;;;;;1.45;0.90;;;9.80;40.30;;;;;;4984722;28;20307;-65
2021/04/15 10:58:21;;;;;;;1.55;0.80;;;10.10;42.40;;;;;;4986498;28;20027;-67
2021/04/15 11:00:47;;;;;;;5.28;1.05;;;10.10;40.30;;;;;;4983415;28;20101;-69
2021/04/15 11:03:22;;;;;;;1.27;0.90;;;10.40;41.70;;;;;;4982794;28;20026;-66
2021/04/15 11:05:52;;;;;;;2.58;0.93;;;10.50;39.60;;;;;;4985579;28;20066;-69
2021/04/15 11:08:27;;;;;;;1.05;0.82;;;10.60;39.40;;;;;;4986649;28;20117;-67
2021/04/15 11:11:13;;;;;;;1.15;0.80;;;10.60;36.60;;;;;;4987187;28;20458;-68
2021/04/15 11:13:39;;;;;;;1.63;1.10;;;10.80;40.00;;;;;;4978502;28;20166;-68
2021/04/15 11:16:18;;;;;;;2.13;0.80;;;11.00;35.70;;;;;;4987560;28;20269;-67
2021/04/15 11:18:44;;;;;;;2.65;1.10;;;11.20;38.50;;;;;;4979709;28;20031;-67
2021/04/15 11:21:16;;;;;;;2.20;0.90;;;11.40;38.60;;;;;;4980332;28;20380;-67
2021/04/15 11:23:42;;;;;;;1.85;1.08;;;11.40;38.10;;;;;;4982851;28;20026;-68
2021/04/15 11:26:29;;;;;;;2.22;0.90;;;11.90;40.10;;;;;;4974436;28;20046;-69
2021/04/15 11:28:59;;;;;;;3.58;0.90;;;12.00;37.70;;;;;;4977200;28;20023;-67
2021/04/15 11:31:38;;;;;;;2.40;0.75;;;12.00;35.30;;;;;;4987561;28;20026;-68
2021/04/15 11:34:26;;;;;;;1.17;0.70;;;12.10;34.40;;;;;;4978759;28;20053;-67
2021/04/15 11:37:05;;;;;;;2.38;0.70;;;11.60;37.00;;;;;;4984729;28;20074;-67
2021/04/15 11:39:36;;;;;;;2.83;0.73;;;11.40;38.60;;;;;;4984324;28;20473;-67
2021/04/15 11:42:05;;;;;;;;;;;10.70;39.40;;;;;;4986532;28;20533;-67
2021/04/15 11:44:33;;;;;;;2.42;0.95;;;10.60;40.50;;;;;;4981749;28;19917;-67
2021/04/15 11:47:09;;;;;;;6.18;0.90;;;10.60;40.90;;;;;;4988452;28;20030;-69
2021/04/15 11:49:39;;;;;;;1.58;0.73;;;10.70;40.90;;;;;;4984191;28;20391;-70
2021/04/15 11:52:07;;;;;;;2.17;1.08;;;10.90;41.00;;;;;;5003087;28;20441;-67
2021/04/15 11:54:36;;;;;;;4.53;1.10;;;11.30;40.00;;;;;;4988543;28;20391;-67
2021/04/15 11:57:14;;;;;;;1.15;0.70;;;11.80;40.90;;;;;;4986822;28;20082;-68
2021/04/15 11:59:40;;;;;;;3.60;1.00;;;12.00;37.20;;;;;;4986603;28;20041;-70
2021/04/15 12:02:28;;;;;;;1.83;0.85;;;13.00;38.30;;;;;;4972927;28;20030;-68
2021/04/15 12:05:19;;;;;;;0.98;0.75;;;13.10;36.00;;;;;;4985467;28;20041;-68
2021/04/15 12:07:53;;;;;;;2.28;0.98;;;12.90;36.50;;;;;;4985848;28;20033;-70
2021/04/15 12:10:23;;;;;;;2.25;0.73;;;11.70;38.60;;;;;;4984976;28;20034;-70
2021/04/15 12:12:52;;;;;;;2.55;1.00;;;11.30;39.80;;;;;;4987753;28;20034;-68
2021/04/15 12:15:24;;;;;;;2.92;0.90;;;10.70;40.20;;;;;;4981675;28;20419;-67
2021/04/15 12:18:17;;;;;;;4.00;0.80;;;10.80;41.80;;;;;;4986418;28;20648;-70
2021/04/15 12:21:05;;;;;;;0.93;0.77;;;10.70;41.40;;;;;;4985792;28;20050;-66
2021/04/15 12:23:56;;;;;;;2.58;1.00;;;10.80;41.30;;;;;;4983487;28;20031;-67
2021/04/15 12:26:45;;;;;;;1.85;1.08;;;10.80;42.60;;;;;;4987814;28;20034;-67
2021/04/15 12:29:30;;;;;;;4.13;1.42;;;10.90;42.80;;;;;;4985572;28;20100;-67
2021/04/15 12:32:16;;;;;;;1.98;0.85;;;11.30;40.20;;;;;;4983147;28;20026;-67
2021/04/15 12:34:52;;;;;;;1.02;0.63;;;11.80;39.60;;;;;;4983216;28;20033;-67
2021/04/15 12:37:42;;;;;;;5.05;2.05;;;12.10;36.70;;;;;;4981559;28;20365;-69
2021/04/15 12:40:35;;;;;;;2.75;1.10;;;12.70;36.90;;;;;;4981522;28;20065;-68
2021/04/15 12:43:25;;;;;;;2.40;1.50;;;13.20;36.30;;;;;;4974920;28;20042;-71
2021/04/15 12:46:01;;;;;;;2.55;1.30;;;13.20;37.20;;;;;;4979010;28;20034;-71
2021/04/15 12:48:56;;;;;;;1.80;0.90;;;14.00;35.60;;;;;;4982759;28;20425;-67
2021/04/15 12:51:25;;;;;;;1.17;0.90;;;13.70;33.20;;;;;;4984515;28;20022;-68
2021/04/15 12:53:53;;;;;;;1.58;0.70;;;13.30;34.80;;;;;;4981593;28;20108;-69
2021/04/15 12:56:24;;;;;;;3.85;0.70;;;13.00;35.90;;;;;;4984268;28;20034;-69
2021/04/15 12:58:54;;;;;;;2.97;0.70;;;12.80;35.30;;;;;;4982574;28;20038;-66
2021/04/15 13:01:20;;;;;;;3.45;0.90;;;12.60;34.80;;;;;;4980940;28;20065;-69
2021/04/15 13:03:47;;;;;;;3.28;0.70;;;12.30;36.70;;;;;;4984038;28;20499;-66
2021/04/15 13:06:15;;;;;;;2.97;1.00;;;13.60;35.40;;;;;;4983487;28;20058;-67
2021/04/15 13:08:50;;;;;;;2.03;0.70;;;14.00;36.20;;;;;;4984223;28;20022;-67
2021/04/15 13:11:16;;;;;;;2.25;0.75;;;14.40;34.20;;;;;;4985432;28;20030;-68
2021/04/15 13:13:43;;;;;;;1.75;0.70;;;13.90;34.80;;;;;;4983159;28;20077;-71
2021/04/15 13:16:43;;;;;;;1.25;0.77;;;13.60;34.60;;;;;;4977679;28;20035;-67
2021/04/15 13:19:20;;;;;;;3.03;0.85;;;14.30;34.50;;;;;;4973892;28;20502;-67
2021/04/15 13:22:07;;;;;;;1.23;0.63;;;14.00;34.90;;;;;;4986259;28;20022;-67